Time;durP1;ratioP1;P1;durP2;ratioP2;P2;SDS_P1;SDS_P2;PMS_P1;PMS_P2;Temp;Humidity;BMP_temperature;BMP_pressure;BME280_temperature;BME280_humidity;BME280_pressure;Samples;Min_cycle;Max_cycle;Signal;HPM_P1;HPM_P2
2022/07/23 09:07:37;;;;;;;3.83;2.13;;;;;;;20.34;71.33;100913.97;7745458;22;20043;-94
2022/07/23 09:11:00;;;;;;;3.47;2.08;;;;;;;20.07;72.21;100912.69;7776682;22;20105;-81
2022/07/23 09:14:02;;;;;;;3.08;1.83;;;;;;;20.03;71.64;100916.66;7798579;22;20023;-82
2022/07/23 09:17:17;;;;;;;3.38;2.22;;;;;;;20.25;69.27;100910.59;7815741;22;20085;-82
2022/07/23 09:20:20;;;;;;;3.05;2.13;;;;;;;20.70;67.18;100910.78;7818664;22;20015;-82
2022/07/23 09:23:36;;;;;;;3.38;2.38;;;;;;;21.05;65.07;100915.34;7818422;22;20046;-81
2022/07/23 09:26:40;;;;;;;3.00;2.13;;;;;;;21.07;65.61;100920.47;7810273;22;20019;-84
2022/07/23 09:29:56;;;;;;;4.68;2.30;;;;;;;21.12;64.03;100922.53;7817702;22;20019;-81
2022/07/23 09:33:16;;;;;;;5.30;2.08;;;;;;;20.86;60.66;100927.22;7817370;22;20019;-83
2022/07/23 09:36:30;;;;;;;4.70;1.80;;;;;;;20.58;64.13;100923.53;7817695;22;20334;-88
2022/07/23 09:39:33;;;;;;;3.00;2.05;;;;;;;20.80;63.10;100921.88;7817501;22;20019;-83
2022/07/23 09:42:35;;;;;;;2.55;2.20;;;;;;;20.70;63.34;100914.22;7816040;22;20051;-81
2022/07/23 09:45:39;;;;;;;4.57;2.20;;;;;;;20.90;64.99;100914.53;7818231;22;20073;-83
2022/07/23 09:48:40;;;;;;;4.15;2.60;;;;;;;21.01;62.55;100911.44;7817145;22;20491;-82
2022/07/23 09:51:58;;;;;;;3.15;2.10;;;;;;;20.77;63.62;100907.25;7787573;22;20085;-82
2022/07/23 09:55:03;;;;;;;3.22;2.40;;;;;;;20.70;64.07;100902.88;7816733;22;20035;-81
2022/07/23 09:58:12;;;;;;;3.35;2.50;;;;;;;20.87;64.01;100914.91;7814103;22;20408;-83
2022/07/23 10:01:14;;;;;;;3.33;2.30;;;;;;;21.20;61.27;100907.47;7789519;22;20494;-83
2022/07/23 10:04:16;;;;;;;4.13;2.78;;;;;;;21.62;60.19;100902.56;7816902;22;20023;-81
2022/07/23 10:07:39;;;;;;;4.25;2.40;;;;;;;22.20;57.93;100911.31;7817700;22;20098;-81
2022/07/23 10:11:01;;;;;;;6.22;2.10;;;;;;;22.46;55.41;100902.00;7816230;22;20386;-83
2022/07/23 10:14:18;;;;;;;2.70;2.00;;;;;;;22.45;55.32;100917.03;7788450;22;20460;-83
2022/07/23 10:17:28;;;;;;;3.28;1.98;;;;;;;22.33;56.35;100918.53;7814928;22;20059;-82
2022/07/23 10:20:30;;;;;;;3.17;2.63;;;;;;;22.13;57.08;100919.13;7816982;22;20148;-83
2022/07/23 10:24:02;;;;;;;3.97;2.58;;;;;;;21.96;59.50;100925.63;7814153;22;20405;-82
2022/07/23 10:27:23;;;;;;;5.03;2.78;;;;;;;22.38;56.08;100910.88;7814578;22;20022;-82
2022/07/23 10:30:30;;;;;;;3.40;2.10;;;;;;;22.51;54.97;100907.56;7811046;22;20440;-82
2022/07/23 10:34:06;;;;;;;3.35;2.35;;;;;;;22.55;53.00;100920.16;7788374;22;20326;-84
2022/07/23 10:37:28;;;;;;;2.20;1.63;;;;;;;22.70;54.50;100901.59;7813839;22;20027;-82
2022/07/23 10:40:31;;;;;;;3.38;1.80;;;;;;;23.05;51.84;100906.13;7785851;22;20027;-82
2022/07/23 10:43:32;;;;;;;3.63;1.95;;;;;;;23.13;51.96;100912.09;7813524;22;20098;-82
2022/07/23 10:46:51;;;;;;;3.92;1.70;;;;;;;23.11;52.62;100914.09;7813901;22;20077;-81
2022/07/23 10:50:22;;;;;;;2.40;1.77;;;;;;;22.74;52.73;100910.78;7814382;22;20020;-83
2022/07/23 10:53:24;;;;;;;1.70;1.60;;;;;;;21.97;54.80;100918.56;7812127;22;20023;-82
2022/07/23 10:56:58;;;;;;;7.15;1.88;;;;;;;21.75;55.28;100915.88;7814117;22;20026;-83
2022/07/23 11:00:11;;;;;;;3.30;1.88;;;;;;;21.90;54.32;100916.66;7814381;22;20026;-85
2022/07/23 11:03:37;;;;;;;2.95;1.63;;;;;;;22.29;52.73;100926.03;7814097;22;20127;-84
2022/07/23 11:06:51;;;;;;;2.97;1.75;;;;;;;22.15;52.80;100917.13;7813881;22;20018;-84
2022/07/23 11:09:54;;;;;;;3.90;2.17;;;;;;;22.28;55.33;100918.28;7814609;22;20133;-82
2022/07/23 11:13:22;;;;;;;2.17;1.85;;;;;;;22.45;53.06;100917.03;7815698;22;20015;-84
2022/07/23 11:16:25;;;;;;;2.00;1.75;;;;;;;22.48;52.46;100926.38;7815691;22;20021;-83
2022/07/23 11:19:27;;;;;;;2.08;1.67;;;;;;;22.29;51.94;100917.31;7813118;22;20098;-87
2022/07/23 11:22:48;;;;;;;2.90;1.40;;;;;;;22.17;52.44;100919.59;7814479;22;20019;-87
2022/07/23 11:25:50;;;;;;;3.35;1.80;;;;;;;22.39;52.23;100903.81;7786048;22;20030;-87
2022/07/23 11:28:52;;;;;;;3.10;1.70;;;;;;;22.47;51.01;100901.84;7813718;22;20122;-85
2022/07/23 11:32:01;;;;;;;5.93;1.58;;;;;;;22.66;50.15;100899.53;7815198;22;20023;-85
2022/07/23 11:35:19;;;;;;;2.25;1.40;;;;;;;22.66;49.90;100912.72;7814493;22;20026;-86
2022/07/23 11:38:22;;;;;;;1.83;1.50;;;;;;;22.46;51.19;100907.28;7814945;22;20026;-85
2022/07/23 11:41:24;;;;;;;3.38;1.45;;;;;;;22.72;48.97;100894.31;7814246;22;20073;-87
2022/07/23 11:44:28;;;;;;;1.73;1.35;;;;;;;23.10;48.91;100899.25;7786533;22;20602;-84
2022/07/23 11:47:30;;;;;;;1.63;1.13;;;;;;;23.57;48.12;100900.28;7813904;22;20015;-85
2022/07/23 11:50:33;;;;;;;3.58;1.40;;;;;;;23.78;46.98;100906.50;7787058;22;20038;-84
2022/07/23 11:53:36;;;;;;;3.15;1.30;;;;;;;23.78;46.14;100894.09;7813999;22;20019;-85
2022/07/23 11:56:55;;;;;;;1.38;1.17;;;;;;;23.46;45.79;100903.50;7814242;22;20027;-86
2022/07/23 12:00:01;;;;;;;1.60;1.35;;;;;;;23.47;46.45;100902.50;7812627;22;20035;-87
2022/07/23 12:03:12;;;;;;;1.40;1.05;;;;;;;23.60;45.52;100909.66;7814300;22;20037;-85
2022/07/23 12:06:15;;;;;;;2.10;1.20;;;;;;;23.76;45.84;100908.53;7812855;22;20019;-87
2022/07/23 12:09:16;;;;;;;2.15;1.23;;;;;;;23.73;44.99;100904.47;7814611;22;20563;-84
2022/07/23 12:12:18;;;;;;;2.25;1.10;;;;;;;23.73;46.17;100898.38;7812717;22;20015;-86
2022/07/23 12:15:23;;;;;;;3.88;1.10;;;;;;;23.80;47.33;100904.47;7812892;22;20275;-87
2022/07/23 12:18:27;;;;;;;3.13;1.58;;;;;;;23.86;46.10;100896.56;7814740;22;20026;-86
2022/07/23 12:21:29;;;;;;;3.10;1.30;;;;;;;24.02;45.05;100905.13;7781652;22;20448;-85
2022/07/23 12:24:31;;;;;;;1.35;1.15;;;;;;;23.84;45.03;100901.22;7811419;22;20019;-85
2022/07/23 12:27:33;;;;;;;1.52;1.05;;;;;;;23.83;45.64;100896.97;7813400;22;20020;-85
2022/07/23 12:30:45;;;;;;;3.25;1.27;;;;;;;23.68;46.80;100901.56;7813346;22;20523;-86
2022/07/23 12:33:50;;;;;;;1.40;1.30;;;;;;;23.68;45.54;100891.00;7813023;22;20016;-84
2022/07/23 12:36:52;;;;;;;1.67;1.10;;;;;;;23.72;45.30;100902.78;7813253;22;20027;-86
2022/07/23 12:39:56;;;;;;;1.38;1.08;;;;;;;24.00;46.19;100913.28;7786952;22;20027;-85
2022/07/23 12:43:06;;;;;;;3.28;1.15;;;;;;;24.31;45.13;100911.91;7812799;22;20015;-85
2022/07/23 12:46:19;;;;;;;2.47;1.10;;;;;;;24.38;44.05;100910.06;7814550;22;20025;-87
2022/07/23 12:49:26;;;;;;;3.10;1.33;;;;;;;24.75;43.66;100907.84;7813849;22;20126;-86
2022/07/23 12:52:31;;;;;;;2.05;1.30;;;;;;;25.11;41.63;100909.22;7811674;22;20022;-87
2022/07/23 12:55:34;;;;;;;2.60;1.15;;;;;;;25.24;42.23;100905.72;7785070;22;20358;-86
2022/07/23 12:59:07;;;;;;;1.50;1.00;;;;;;;25.78;42.56;100918.56;7812580;22;20109;-86
2022/07/23 13:02:09;;;;;;;2.20;1.00;;;;;;;25.95;40.38;100918.91;7812554;22;20318;-88
2022/07/23 13:05:12;;;;;;;2.45;0.93;;;;;;;26.03;40.46;100919.69;7813283;22;20480;-88
2022/07/23 13:08:14;;;;;;;2.08;1.27;;;;;;;25.85;40.08;100915.06;7785050;22;20360;-89
2022/07/23 13:11:17;;;;;;;1.23;0.85;;;;;;;25.31;40.70;100914.47;7788585;22;20098;-86
2022/07/23 13:14:21;;;;;;;1.73;1.05;;;;;;;24.71;42.63;100918.03;7815631;22;20023;-89
2022/07/23 13:17:23;;;;;;;2.25;1.00;;;;;;;24.95;42.28;100913.13;7788962;22;20453;-88
2022/07/23 13:20:25;;;;;;;1.80;0.88;;;;;;;25.33;41.69;100905.28;7815150;22;20460;-85
2022/07/23 13:23:27;;;;;;;3.30;1.40;;;;;;;25.04;41.26;100916.34;7815450;22;20019;-84
2022/07/23 13:26:30;;;;;;;1.23;0.90;;;;;;;25.01;41.64;100916.78;7815681;22;20524;-85
2022/07/23 13:29:32;;;;;;;1.35;0.70;;;;;;;24.95;41.42;100914.97;7815166;22;20034;-83
2022/07/23 13:32:37;;;;;;;2.38;1.10;;;;;;;24.81;42.00;100911.50;7815575;22;20065;-84
2022/07/23 13:35:39;;;;;;;2.08;1.13;;;;;;;25.09;41.66;100908.59;7815223;22;20014;-84
2022/07/23 13:38:41;;;;;;;2.60;1.00;;;;;;;25.33;40.34;100921.19;7815614;22;20097;-85
2022/07/23 13:41:44;;;;;;;1.52;0.80;;;;;;;24.94;41.24;100908.81;7811258;22;20023;-88
2022/07/23 13:44:51;;;;;;;0.80;0.73;;;;;;;24.98;41.38;100917.19;7814576;22;20019;-89
2022/07/23 13:47:54;;;;;;;2.60;0.88;;;;;;;25.37;40.12;100913.66;7813505;22;20023;-89
2022/07/23 13:50:55;;;;;;;2.80;1.00;;;;;;;25.38;39.58;100907.31;7814744;22;20022;-91
2022/07/23 13:53:59;;;;;;;2.13;0.90;;;;;;;25.54;39.57;100909.50;7815885;22;20023;-91
2022/07/23 13:57:01;;;;;;;1.77;0.80;;;;;;;25.48;39.36;100906.88;7764308;22;20073;-91
2022/07/23 14:00:06;;;;;;;1.23;0.80;;;;;;;25.35;39.90;100928.94;7813191;22;20105;-94
2022/07/23 14:03:09;;;;;;;1.38;0.80;;;;;;;25.17;39.95;100911.06;7813786;22;20090;-90
2022/07/23 14:06:11;;;;;;;1.15;1.02;;;;;;;25.06;40.62;100907.19;7815180;22;20273;-90
2022/07/23 14:09:17;;;;;;;1.35;0.90;;;;;;;25.03;40.28;100902.28;7814026;22;20096;-90
2022/07/23 14:12:19;;;;;;;1.00;0.90;;;;;;;24.74;40.93;100902.75;7814506;22;20021;-91
2022/07/23 14:15:27;;;;;;;1.50;0.70;;;;;;;25.18;40.45;100914.53;7813648;22;20089;-91
2022/07/23 14:18:30;;;;;;;3.33;0.90;;;;;;;25.78;38.39;100909.78;7814530;22;20020;-90
2022/07/23 14:21:34;;;;;;;1.92;0.80;;;;;;;26.34;38.19;100924.19;7815001;22;20108;-92
2022/07/23 14:24:36;;;;;;;2.38;0.80;;;;;;;26.57;37.35;100916.44;7815255;22;20023;-90
2022/07/23 14:27:39;;;;;;;2.90;1.00;;;;;;;26.86;36.51;100914.16;7813634;22;20019;-91
2022/07/23 14:30:42;;;;;;;1.15;0.90;;;;;;;26.97;36.37;100912.59;7786342;22;20023;-91
2022/07/23 14:33:45;;;;;;;1.17;0.73;;;;;;;27.19;35.65;100919.13;7812516;22;20471;-90
2022/07/23 14:36:48;;;;;;;2.00;0.70;;;;;;;27.31;35.26;100926.38;7814593;22;20019;-90
2022/07/23 14:39:51;;;;;;;1.60;0.90;;;;;;;26.45;36.39;100928.78;7814107;22;20031;-91
2022/07/23 14:42:52;;;;;;;1.65;1.05;;;;;;;26.41;37.75;100915.13;7813850;22;20022;-89
2022/07/23 14:45:54;;;;;;;1.38;0.80;;;;;;;26.83;37.04;100927.84;7814071;22;20440;-92
2022/07/23 14:48:56;;;;;;;3.90;1.08;;;;;;;27.31;36.37;100924.53;7812655;22;20326;-91
2022/07/23 14:51:59;;;;;;;1.35;0.63;;;;;;;27.58;36.12;100932.19;7785809;22;20088;-89
2022/07/23 14:55:01;;;;;;;2.15;0.80;;;;;;;27.58;35.89;100925.03;7811941;22;20616;-89
2022/07/23 14:58:04;;;;;;;3.20;0.98;;;;;;;27.22;36.21;100929.31;7785922;22;20019;-92
2022/07/23 15:01:08;;;;;;;1.80;0.90;;;;;;;26.53;36.53;100930.38;7815284;22;20188;-92
2022/07/23 15:04:10;;;;;;;1.75;1.10;;;;;;;26.31;37.52;100921.94;7787309;22;20015;-90
2022/07/23 15:07:32;;;;;;;1.08;0.90;;;;;;;26.38;36.96;100939.47;7814911;22;20349;-90
2022/07/23 15:10:34;;;;;;;0.75;0.70;;;;;;;26.43;37.27;100931.66;7815064;22;20467;-93
2022/07/23 15:13:37;;;;;;;1.52;0.70;;;;;;;26.78;37.56;100917.91;7815555;22;20015;-91
2022/07/23 15:16:40;;;;;;;1.85;0.70;;;;;;;27.04;36.62;100926.63;7813439;22;20035;-91
2022/07/23 15:19:44;;;;;;;1.20;0.77;;;;;;;27.04;35.48;100926.63;7787303;22;20015;-92
2022/07/23 15:22:47;;;;;;;1.33;0.95;;;;;;;27.22;36.00;100924.00;7811521;22;20027;-93
2022/07/23 15:25:49;;;;;;;0.90;0.65;;;;;;;27.17;35.18;100920.38;7784673;22;20049;-92
2022/07/23 15:28:52;;;;;;;1.83;0.80;;;;;;;27.16;35.56;100929.38;7813200;22;20023;-92
2022/07/23 15:31:55;;;;;;;1.35;0.75;;;;;;;27.23;35.16;100932.81;7782358;22;20023;-92
2022/07/23 15:35:00;;;;;;;1.27;0.73;;;;;;;27.32;35.94;100923.50;7812569;22;20015;-92
2022/07/23 15:38:04;;;;;;;3.42;1.33;;;;;;;27.45;36.26;100923.34;7810746;22;20042;-91
2022/07/23 15:41:14;;;;;;;0.60;0.60;;;;;;;27.45;34.79;100923.34;7812816;22;20046;-96
2022/07/23 15:44:16;;;;;;;2.17;0.77;;;;;;;27.33;35.63;100922.47;7811534;22;20039;-92
2022/07/23 15:47:30;;;;;;;1.42;0.90;;;;;;;27.35;35.99;100928.34;7790265;22;20038;-95
2022/07/23 15:50:31;;;;;;;6.05;1.00;;;;;;;27.60;35.42;100922.13;7787105;22;20420;-90
2022/07/23 15:53:34;;;;;;;1.33;1.05;;;;;;;27.56;35.26;100921.78;7788138;22;20038;-93
2022/07/23 15:56:37;;;;;;;0.60;0.60;;;;;;;27.56;35.34;100929.75;7785034;22;20025;-96
2022/07/23 15:59:39;;;;;;;1.92;0.80;;;;;;;27.51;35.58;100918.97;7813694;22;20025;-93
2022/07/23 16:02:42;;;;;;;1.38;0.70;;;;;;;26.72;36.99;100913.47;7811819;22;20072;-94
2022/07/23 16:05:43;;;;;;;2.42;1.00;;;;;;;26.81;36.88;100920.13;7813507;22;20030;-93
2022/07/23 16:08:47;;;;;;;1.63;0.77;;;;;;;27.41;36.23;100926.69;7812992;22;20069;-93
2022/07/23 16:11:49;;;;;;;1.00;0.90;;;;;;;27.71;35.03;100924.84;7812478;22;20445;-93
2022/07/23 16:14:51;;;;;;;0.80;0.60;;;;;;;28.33;34.66;100915.81;7784594;22;20022;-92
2022/07/23 16:17:55;;;;;;;1.50;0.77;;;;;;;28.68;32.91;100923.03;7812441;22;20023;-92
2022/07/23 16:21:10;;;;;;;0.60;0.60;;;;;;;29.16;33.22;100913.97;7811930;22;20469;-92
2022/07/23 16:24:16;;;;;;;0.80;0.80;;;;;;;29.61;32.03;100919.41;7803314;22;20019;-91
2022/07/23 16:27:18;;;;;;;1.65;1.08;;;;;;;30.25;31.14;100924.56;7809898;22;20543;-93
2022/07/23 16:30:20;;;;;;;1.88;0.90;;;;;;;30.42;30.00;100913.09;7806292;22;20396;-92
2022/07/23 16:33:23;;;;;;;4.00;1.02;;;;;;;30.29;30.23;100908.09;7805726;22;20030;-91
2022/07/23 16:36:25;;;;;;;0.80;0.60;;;;;;;29.98;30.99;100915.53;7782799;22;20095;-93
2022/07/23 16:39:27;;;;;;;1.15;0.80;;;;;;;29.95;30.89;100903.50;7811262;22;20344;-92
2022/07/23 16:42:28;;;;;;;6.18;1.48;;;;;;;30.32;30.62;100911.06;7811897;22;20101;-92
2022/07/23 16:45:30;;;;;;;2.42;1.02;;;;;;;30.88;29.48;100911.09;7811935;22;20016;-92
2022/07/23 16:48:32;;;;;;;0.82;0.75;;;;;;;31.15;29.11;100913.03;7813598;22;20020;-93
2022/07/23 16:51:34;;;;;;;0.70;0.70;;;;;;;31.44;28.53;100916.34;7813063;22;20029;-92
2022/07/23 16:54:36;;;;;;;0.75;0.68;;;;;;;31.90;27.42;100912.28;7814108;22;20015;-92
2022/07/23 16:57:38;;;;;;;1.35;1.10;;;;;;;30.94;29.40;100907.44;7814008;22;20025;-92
2022/07/23 17:00:39;;;;;;;2.72;0.80;;;;;;;31.60;28.80;100914.66;7814825;22;20023;-92
2022/07/23 17:03:41;;;;;;;0.80;0.65;;;;;;;31.79;27.99;100929.31;7788011;22;20173;-93
2022/07/23 17:06:43;;;;;;;0.82;0.82;;;;;;;31.17;28.87;100924.31;7813005;22;20154;-92
2022/07/23 17:09:45;;;;;;;1.15;0.88;;;;;;;31.00;29.28;100917.13;7814818;22;20441;-92
2022/07/23 17:12:50;;;;;;;1.83;0.70;;;;;;;31.14;29.21;100919.47;7813993;22;20015;-92
2022/07/23 17:15:54;;;;;;;1.30;0.68;;;;;;;31.60;28.32;100933.38;7787163;22;20353;-93
2022/07/23 17:18:55;;;;;;;1.45;0.50;;;;;;;31.90;28.13;100928.34;7813172;22;20350;-92
2022/07/23 17:21:57;;;;;;;5.05;0.90;;;;;;;32.31;27.61;100926.03;7813696;22;20023;-92
2022/07/23 17:24:59;;;;;;;1.10;0.90;;;;;;;32.31;27.43;100928.72;7814097;22;20016;-93
2022/07/23 17:28:03;;;;;;;2.70;0.90;;;;;;;31.96;27.83;100931.91;7813806;22;20465;-93
2022/07/23 17:31:05;;;;;;;2.15;0.98;;;;;;;31.80;28.55;100924.75;7812222;22;20518;-92
2022/07/23 17:34:08;;;;;;;1.70;1.00;;;;;;;31.66;28.74;100929.72;7814860;22;20019;-91
2022/07/23 17:37:09;;;;;;;1.67;1.00;;;;;;;31.11;28.98;100923.44;7787298;22;20025;-92
2022/07/23 17:40:12;;;;;;;0.73;0.68;;;;;;;30.51;29.85;100935.69;7814522;22;20042;-93
2022/07/23 17:43:13;;;;;;;1.25;0.70;;;;;;;29.80;30.76;100935.25;7814266;22;20019;-92
2022/07/23 17:46:15;;;;;;;1.42;0.77;;;;;;;29.25;31.90;100920.56;7812430;22;20026;-92
2022/07/23 17:49:18;;;;;;;0.60;0.60;;;;;;;28.54;32.55;100933.91;7814003;22;20520;-93
2022/07/23 17:52:20;;;;;;;0.93;0.80;;;;;;;28.03;34.03;100929.16;7785015;22;20449;-92
2022/07/23 17:55:24;;;;;;;1.77;0.95;;;;;;;27.57;35.27;100942.00;7813731;22;20028;-91
2022/07/23 17:58:25;;;;;;;1.13;0.80;;;;;;;27.13;36.09;100938.63;7810225;22;20055;-92
2022/07/23 18:01:28;;;;;;;1.05;0.70;;;;;;;26.91;35.95;100935.56;7811048;22;20646;-91
2022/07/23 18:04:30;;;;;;;3.00;1.05;;;;;;;26.69;37.15;100939.66;7809688;22;20027;-92
2022/07/23 18:07:33;;;;;;;1.67;0.80;;;;;;;26.33;37.75;100936.59;7811677;22;20015;-91
2022/07/23 18:10:35;;;;;;;2.25;0.70;;;;;;;25.75;38.51;100942.03;7812325;22;20026;-92
2022/07/23 18:13:37;;;;;;;3.70;0.80;;;;;;;25.07;40.13;100937.97;7812602;22;20019;-91
2022/07/23 18:16:39;;;;;;;0.70;0.70;;;;;;;24.52;41.03;100939.22;7812320;22;20065;-91
2022/07/23 18:19:43;;;;;;;1.23;1.00;;;;;;;24.06;42.14;100946.84;7813271;22;20282;-91
2022/07/23 18:22:45;;;;;;;1.63;0.90;;;;;;;23.91;43.19;100948.03;7812957;22;20030;-92
2022/07/23 18:25:47;;;;;;;0.60;0.60;;;;;;;23.78;43.21;100946.97;7811780;22;20100;-91
2022/07/23 18:28:49;;;;;;;1.83;0.93;;;;;;;23.47;45.06;100949.25;7784722;22;20088;-90
2022/07/23 18:31:51;;;;;;;4.45;1.10;;;;;;;23.30;44.87;100951.38;7785828;22;20022;-92
2022/07/23 18:34:55;;;;;;;2.38;0.80;;;;;;;23.24;44.67;100950.34;7811796;22;20023;-92
2022/07/23 18:37:58;;;;;;;1.15;0.75;;;;;;;23.15;44.74;100952.31;7810292;22;20023;-91
2022/07/23 18:41:00;;;;;;;2.08;0.80;;;;;;;23.13;44.79;100958.78;7784928;22;20019;-91
2022/07/23 18:44:02;;;;;;;2.35;1.00;;;;;;;24.10;43.77;100952.56;7813467;22;20031;-91
2022/07/23 18:47:04;;;;;;;1.33;0.70;;;;;;;25.69;39.93;100956.13;7813268;22;20022;-91
2022/07/23 18:50:10;;;;;;;2.03;0.70;;;;;;;26.42;38.44;100966.38;7812802;22;20012;-91
2022/07/23 18:53:12;;;;;;;0.90;0.85;;;;;;;26.51;38.14;100962.44;7812720;22;20022;-91
2022/07/23 18:56:14;;;;;;;1.95;0.90;;;;;;;26.11;38.51;100968.00;7811556;22;20310;-92
2022/07/23 18:59:16;;;;;;;3.97;0.73;;;;;;;25.91;39.20;100968.13;7813607;22;20141;-92
2022/07/23 19:02:24;;;;;;;1.15;0.65;;;;;;;25.55;39.83;100969.44;7811770;22;20673;-91
2022/07/23 19:05:26;;;;;;;1.92;0.90;;;;;;;24.99;41.33;100972.59;7810149;22;20025;-91
2022/07/23 19:08:28;;;;;;;1.13;0.80;;;;;;;23.96;43.29;100982.63;7813103;22;20415;-91
2022/07/23 19:11:31;;;;;;;1.55;0.95;;;;;;;22.96;45.56;100984.66;7814033;22;20094;-90
2022/07/23 19:14:32;;;;;;;1.83;0.77;;;;;;;22.27;47.82;100982.59;7814604;22;20015;-91
2022/07/23 19:17:35;;;;;;;0.98;0.80;;;;;;;21.73;50.16;100981.94;7811738;22;20038;-91
2022/07/23 19:20:37;;;;;;;0.93;0.82;;;;;;;21.40;51.75;100981.50;7811844;22;20090;-91
2022/07/23 19:23:45;;;;;;;3.50;1.10;;;;;;;21.12;54.61;100983.91;7811818;22;20843;-89
2022/07/23 19:26:47;;;;;;;1.65;1.00;;;;;;;20.92;54.92;100988.88;7811657;22;20019;-92
2022/07/23 19:29:50;;;;;;;2.63;0.90;;;;;;;20.71;55.72;100989.50;7812157;22;20034;-92
2022/07/23 19:32:52;;;;;;;0.82;0.73;;;;;;;20.51;56.76;100996.22;7812563;22;20019;-93
2022/07/23 19:35:53;;;;;;;2.75;0.93;;;;;;;20.33;58.13;101004.38;7814469;22;20022;-93
2022/07/23 19:38:55;;;;;;;1.40;1.00;;;;;;;20.19;58.13;101003.28;7812033;22;20047;-93
2022/07/23 19:41:57;;;;;;;1.10;1.00;;;;;;;20.03;59.94;101006.03;7812117;22;20019;-93
2022/07/23 19:44:59;;;;;;;1.13;0.90;;;;;;;19.88;60.31;101009.34;7813321;22;20015;-93
2022/07/23 19:48:02;;;;;;;1.30;0.82;;;;;;;19.76;61.95;101005.47;7813934;22;20039;-93
2022/07/23 19:51:04;;;;;;;1.85;0.93;;;;;;;19.69;63.63;101012.38;7812010;22;20025;-93
2022/07/23 19:54:06;;;;;;;1.27;0.90;;;;;;;19.55;63.64;101012.06;7814017;22;20089;-91
2022/07/23 19:57:08;;;;;;;1.42;1.15;;;;;;;19.46;65.08;101018.31;7785450;22;20012;-92
2022/07/23 20:00:11;;;;;;;1.13;0.88;;;;;;;19.35;65.52;101016.88;7811164;22;20026;-92
2022/07/23 20:03:13;;;;;;;2.67;1.33;;;;;;;19.26;65.97;101024.91;7813215;22;20019;-91
2022/07/23 20:06:15;;;;;;;1.83;0.70;;;;;;;19.19;66.45;101027.38;7810937;22;20801;-92
2022/07/23 20:09:18;;;;;;;2.60;0.70;;;;;;;19.10;66.94;101023.91;7746405;22;20046;-92
2022/07/23 20:12:20;;;;;;;1.98;0.80;;;;;;;19.01;68.89;101030.16;7771809;22;20024;-92
2022/07/23 20:15:22;;;;;;;2.97;1.00;;;;;;;18.91;70.93;101034.75;7775411;22;20023;-92
2022/07/23 20:18:23;;;;;;;2.38;0.93;;;;;;;18.78;71.79;101037.03;7776101;22;20027;-92
2022/07/23 20:21:25;;;;;;;1.00;0.80;;;;;;;18.58;72.78;101039.09;7776096;22;20024;-92
2022/07/23 20:24:27;;;;;;;1.60;0.90;;;;;;;18.41;74.09;101044.31;7777359;22;20201;-91
2022/07/23 20:27:28;;;;;;;3.90;1.00;;;;;;;18.25;74.75;101042.44;7777367;22;20022;-92
2022/07/23 20:30:31;;;;;;;1.63;1.13;;;;;;;18.13;76.58;101050.75;7778211;22;20053;-92
2022/07/23 20:33:33;;;;;;;2.58;1.30;;;;;;;18.00;77.67;101044.16;7779075;22;20525;-92
2022/07/23 20:36:37;;;;;;;2.58;1.00;;;;;;;17.95;78.47;101046.44;7777701;22;20026;-92
2022/07/23 20:39:39;;;;;;;2.47;1.25;;;;;;;17.89;79.19;101039.19;7778697;22;20280;-92
2022/07/23 20:42:40;;;;;;;2.67;1.73;;;;;;;17.79;80.31;101043.72;7776666;22;20024;-92
2022/07/23 20:45:42;;;;;;;4.43;1.23;;;;;;;17.71;80.46;101051.50;7778925;22;20107;-92
2022/07/23 20:48:44;;;;;;;2.53;1.10;;;;;;;17.62;81.05;101043.59;7778738;22;20438;-91
2022/07/23 20:51:47;;;;;;;4.50;1.20;;;;;;;17.55;81.96;101052.22;7777435;22;20079;-92
2022/07/23 20:54:48;;;;;;;3.70;1.10;;;;;;;17.50;83.13;101046.63;7778644;22;20023;-92
2022/07/23 20:57:50;;;;;;;5.07;1.52;;;;;;;17.46;83.62;101046.09;7775853;22;20341;-91
2022/07/23 21:00:52;;;;;;;1.20;0.90;;;;;;;17.41;83.42;101043.13;7777769;22;20074;-92
2022/07/23 21:03:54;;;;;;;1.00;0.88;;;;;;;17.35;83.96;101043.75;7777417;22;20555;-91
2022/07/23 21:06:56;;;;;;;2.78;1.10;;;;;;;17.31;84.60;101048.44;7778297;22;20026;-91
2022/07/23 21:09:58;;;;;;;3.08;1.00;;;;;;;17.24;85.33;101042.19;7777674;22;20020;-92
2022/07/23 21:13:00;;;;;;;3.22;1.10;;;;;;;17.20;85.98;101049.53;7777991;22;20677;-91
2022/07/23 21:16:05;;;;;;;1.33;1.08;;;;;;;17.16;86.24;101048.16;7777463;22;20381;-91
2022/07/23 21:19:07;;;;;;;1.30;0.90;;;;;;;17.11;86.75;101050.41;7777336;22;20103;-92
2022/07/23 21:22:09;;;;;;;1.60;1.20;;;;;;;17.08;87.25;101057.75;7777702;22;20024;-92
2022/07/23 21:25:13;;;;;;;2.47;1.10;;;;;;;17.00;87.06;101064.56;7776272;22;20083;-92
2022/07/23 21:28:15;;;;;;;2.40;1.10;;;;;;;16.95;87.08;101066.00;7777371;22;20370;-91
2022/07/23 21:31:17;;;;;;;2.92;1.20;;;;;;;16.93;87.33;101066.13;7776395;22;20065;-91
2022/07/23 21:34:20;;;;;;;1.33;0.98;;;;;;;16.87;87.72;101058.91;7775483;22;20023;-91
2022/07/23 21:37:21;;;;;;;1.30;1.15;;;;;;;16.82;88.04;101061.13;7777423;22;20043;-92
2022/07/23 21:40:23;;;;;;;2.78;1.30;;;;;;;16.81;88.45;101066.50;7776978;22;20015;-92
2022/07/23 21:43:25;;;;;;;2.40;1.65;;;;;;;16.74;88.14;101072.31;7775729;22;20087;-91
2022/07/23 21:46:30;;;;;;;1.42;1.33;;;;;;;16.67;88.54;101067.78;7775430;22;20020;-92
2022/07/23 21:49:32;;;;;;;4.60;1.80;;;;;;;16.60;89.01;101066.75;7749386;22;20038;-91
2022/07/23 21:52:34;;;;;;;2.55;1.55;;;;;;;16.52;89.40;101077.91;7779470;22;20030;-91
2022/07/23 21:55:36;;;;;;;2.20;1.30;;;;;;;16.47;90.58;101077.53;7778154;22;20024;-92
2022/07/23 21:58:38;;;;;;;2.17;1.60;;;;;;;16.42;90.40;101078.00;7778533;22;20839;-91
2022/07/23 22:01:40;;;;;;;3.65;1.60;;;;;;;16.37;90.52;101077.59;7749683;22;20522;-92
2022/07/23 22:04:42;;;;;;;2.83;1.35;;;;;;;16.30;91.03;101077.38;7775815;22;20169;-92
2022/07/23 22:07:44;;;;;;;3.13;1.40;;;;;;;16.24;91.04;101075.31;7777504;22;20426;-91
2022/07/23 22:10:45;;;;;;;2.38;1.45;;;;;;;16.18;91.33;101077.69;7776262;22;20075;-91
2022/07/23 22:13:47;;;;;;;2.47;1.48;;;;;;;16.09;92.01;101079.38;7777399;22;20016;-91
2022/07/23 22:16:49;;;;;;;1.98;1.40;;;;;;;16.04;92.64;101079.78;7778047;22;20016;-92
2022/07/23 22:19:51;;;;;;;1.35;1.17;;;;;;;16.02;93.04;101081.72;7777139;22;20434;-92
2022/07/23 22:22:52;;;;;;;2.97;1.83;;;;;;;15.99;93.52;101073.38;7778779;22;20034;-92
2022/07/23 22:25:54;;;;;;;4.18;1.92;;;;;;;15.96;93.41;101076.28;7778424;22;20334;-92
2022/07/23 22:28:56;;;;;;;3.42;1.80;;;;;;;15.96;94.49;101084.91;7777136;22;20445;-91
2022/07/23 22:31:58;;;;;;;2.55;1.80;;;;;;;15.90;94.06;101082.88;7747183;22;20358;-92
2022/07/23 22:35:00;;;;;;;1.85;1.65;;;;;;;15.87;94.64;101083.16;7774344;22;20020;-91
2022/07/23 22:38:02;;;;;;;2.28;1.48;;;;;;;15.83;95.15;101084.41;7746811;22;20020;-92
2022/07/23 22:41:04;;;;;;;2.42;1.88;;;;;;;15.80;95.85;101080.31;7774668;22;20039;-92
2022/07/23 22:44:05;;;;;;;2.70;1.85;;;;;;;15.77;96.16;101084.97;7773785;22;20094;-92
2022/07/23 22:47:07;;;;;;;3.17;1.50;;;;;;;15.74;96.72;101080.03;7775318;22;20070;-92
2022/07/23 22:50:09;;;;;;;1.90;1.63;;;;;;;15.72;95.89;101082.78;7775893;22;20080;-92
2022/07/23 22:53:13;;;;;;;3.50;1.80;;;;;;;15.69;95.80;101083.03;7774587;22;20020;-92
2022/07/23 22:56:15;;;;;;;3.20;2.05;;;;;;;15.64;96.69;101085.25;7747138;22;20089;-92
2022/07/23 22:59:17;;;;;;;3.35;2.10;;;;;;;15.60;97.06;101087.31;7774303;22;20090;-92
2022/07/23 23:02:30;;;;;;;2.30;2.10;;;;;;;15.57;97.18;101087.56;7775759;22;20019;-92
2022/07/23 23:05:32;;;;;;;3.15;2.17;;;;;;;15.54;97.70;101085.25;7773931;22;20020;-92
2022/07/23 23:08:34;;;;;;;3.53;2.10;;;;;;;15.54;97.58;101085.25;7774883;22;20030;-92
2022/07/23 23:11:36;;;;;;;4.55;2.25;;;;;;;15.50;98.39;101083.88;7775387;22;20026;-92
2022/07/23 23:14:38;;;;;;;3.65;2.00;;;;;;;15.48;98.12;101078.00;7774391;22;20770;-92
2022/07/23 23:17:40;;;;;;;6.00;2.28;;;;;;;15.47;98.79;101078.94;7776010;22;20020;-91
2022/07/23 23:20:42;;;;;;;3.15;1.75;;;;;;;15.46;99.04;101080.75;7775817;22;20015;-92
2022/07/23 23:23:45;;;;;;;2.90;2.00;;;;;;;15.46;99.21;101078.13;7775309;22;20030;-92